sensor_id;sensor_type;location;lat;lon;timestamp;pressure;altitude;pressure_sealevel;temperature;humidity
11830;BME280;5972;42.134;24.718;2023-03-18T00:00:22;100230.84;;;7.29;81.60
11830;BME280;5972;42.134;24.718;2023-03-18T00:02:50;100240.31;;;7.27;79.90
11830;BME280;5972;42.134;24.718;2023-03-18T00:05:17;100233.44;;;7.21;80.27
11830;BME280;5972;42.134;24.718;2023-03-18T00:07:45;100208.28;;;7.03;79.94
11830;BME280;5972;42.134;24.718;2023-03-18T00:10:12;100221.81;;;7.12;80.79
11830;BME280;5972;42.134;24.718;2023-03-18T00:12:40;100221.41;;;7.18;80.64
11830;BME280;5972;42.134;24.718;2023-03-18T00:15:09;100222.63;;;7.12;81.50
11830;BME280;5972;42.134;24.718;2023-03-18T00:17:38;100201.72;;;6.95;80.40
11830;BME280;5972;42.134;24.718;2023-03-18T00:20:07;100222.16;;;6.96;80.15
11830;BME280;5972;42.134;24.718;2023-03-18T00:22:36;100218.00;;;6.90;80.16
11830;BME280;5972;42.134;24.718;2023-03-18T00:25:04;100219.38;;;6.88;81.30
11830;BME280;5972;42.134;24.718;2023-03-18T00:27:32;100210.72;;;6.91;82.19
11830;BME280;5972;42.134;24.718;2023-03-18T00:30:00;100220.84;;;6.94;83.80
11830;BME280;5972;42.134;24.718;2023-03-18T00:32:28;100198.16;;;6.86;83.47
11830;BME280;5972;42.134;24.718;2023-03-18T00:34:56;100211.47;;;7.05;82.33
11830;BME280;5972;42.134;24.718;2023-03-18T00:37:24;100209.75;;;7.09;81.20
11830;BME280;5972;42.134;24.718;2023-03-18T00:39:56;100207.75;;;7.15;83.36
11830;BME280;5972;42.134;24.718;2023-03-18T00:42:24;100201.88;;;7.13;87.83
11830;BME280;5972;42.134;24.718;2023-03-18T00:44:50;100204.47;;;7.18;91.10
11830;BME280;5972;42.134;24.718;2023-03-18T00:47:18;100202.03;;;6.80;96.05
11830;BME280;5972;42.134;24.718;2023-03-18T00:49:45;100204.78;;;7.02;95.38
11830;BME280;5972;42.134;24.718;2023-03-18T00:52:13;100196.16;;;6.92;96.29
11830;BME280;5972;42.134;24.718;2023-03-18T00:54:47;100199.53;;;6.97;96.79
11830;BME280;5972;42.134;24.718;2023-03-18T00:57:14;100197.84;;;7.01;96.47
11830;BME280;5972;42.134;24.718;2023-03-18T00:59:42;100198.84;;;6.92;97.48
11830;BME280;5972;42.134;24.718;2023-03-18T01:02:09;100201.06;;;6.90;98.87
11830;BME280;5972;42.134;24.718;2023-03-18T01:04:35;100186.00;;;6.89;99.21
11830;BME280;5972;42.134;24.718;2023-03-18T01:07:02;100197.16;;;6.96;97.07
11830;BME280;5972;42.134;24.718;2023-03-18T01:09:31;100195.00;;;6.84;97.69
11830;BME280;5972;42.134;24.718;2023-03-18T01:11:58;100203.34;;;6.96;97.63
11830;BME280;5972;42.134;24.718;2023-03-18T01:14:25;100204.72;;;6.94;94.93
11830;BME280;5972;42.134;24.718;2023-03-18T01:16:52;100152.00;;;6.57;94.05
11830;BME280;5972;42.134;24.718;2023-03-18T01:19:18;100196.25;;;6.87;94.13
11830;BME280;5972;42.134;24.718;2023-03-18T01:21:45;100181.94;;;6.64;95.12
11830;BME280;5972;42.134;24.718;2023-03-18T01:24:12;100197.78;;;6.79;95.25
11830;BME280;5972;42.134;24.718;2023-03-18T01:26:40;100194.00;;;6.66;96.49
11830;BME280;5972;42.134;24.718;2023-03-18T01:29:08;100189.72;;;6.65;97.87
11830;BME280;5972;42.134;24.718;2023-03-18T01:31:36;100182.69;;;6.56;99.17
11830;BME280;5972;42.134;24.718;2023-03-18T01:34:03;100184.75;;;6.59;100.00
11830;BME280;5972;42.134;24.718;2023-03-18T01:36:30;100186.06;;;6.61;100.00
11830;BME280;5972;42.134;24.718;2023-03-18T01:38:57;100189.84;;;6.60;100.00
11830;BME280;5972;42.134;24.718;2023-03-18T01:41:25;100185.06;;;6.57;100.00
11830;BME280;5972;42.134;24.718;2023-03-18T01:43:53;100186.38;;;6.46;100.00
11830;BME280;5972;42.134;24.718;2023-03-18T01:46:31;100182.38;;;6.44;100.00
11830;BME280;5972;42.134;24.718;2023-03-18T01:48:59;100181.88;;;6.42;100.00
11830;BME280;5972;42.134;24.718;2023-03-18T01:51:27;100178.00;;;6.34;100.00
11830;BME280;5972;42.134;24.718;2023-03-18T01:53:56;100179.00;;;6.38;100.00
11830;BME280;5972;42.134;24.718;2023-03-18T01:56:24;100176.53;;;6.28;100.00
11830;BME280;5972;42.134;24.718;2023-03-18T01:58:54;100181.19;;;6.36;100.00
11830;BME280;5972;42.134;24.718;2023-03-18T02:01:27;100174.63;;;6.42;100.00
11830;BME280;5972;42.134;24.718;2023-03-18T02:03:59;100171.00;;;6.47;100.00
11830;BME280;5972;42.134;24.718;2023-03-18T02:06:26;100153.53;;;6.22;100.00
11830;BME280;5972;42.134;24.718;2023-03-18T02:08:54;100160.88;;;6.30;100.00
11830;BME280;5972;42.134;24.718;2023-03-18T02:11:22;100169.13;;;6.47;100.00
11830;BME280;5972;42.134;24.718;2023-03-18T02:13:49;100176.22;;;6.43;100.00
11830;BME280;5972;42.134;24.718;2023-03-18T02:16:21;100162.69;;;6.35;100.00
11830;BME280;5972;42.134;24.718;2023-03-18T02:18:51;100168.31;;;6.47;100.00
11830;BME280;5972;42.134;24.718;2023-03-18T02:21:30;100167.75;;;6.36;100.00
11830;BME280;5972;42.134;24.718;2023-03-18T02:24:07;100174.50;;;6.47;100.00
11830;BME280;5972;42.134;24.718;2023-03-18T02:26:49;100166.44;;;6.47;100.00
11830;BME280;5972;42.134;24.718;2023-03-18T02:29:19;100172.81;;;6.51;100.00
11830;BME280;5972;42.134;24.718;2023-03-18T02:31:48;100178.22;;;6.51;100.00
11830;BME280;5972;42.134;24.718;2023-03-18T02:34:15;100164.94;;;6.41;100.00
11830;BME280;5972;42.134;24.718;2023-03-18T02:36:43;100169.81;;;6.53;100.00
11830;BME280;5972;42.134;24.718;2023-03-18T02:39:12;100159.97;;;6.48;100.00
11830;BME280;5972;42.134;24.718;2023-03-18T02:41:41;100154.53;;;6.12;100.00
11830;BME280;5972;42.134;24.718;2023-03-18T02:44:09;100157.50;;;6.24;100.00
11830;BME280;5972;42.134;24.718;2023-03-18T02:46:45;100175.41;;;6.43;100.00
11830;BME280;5972;42.134;24.718;2023-03-18T02:49:17;100175.00;;;6.36;100.00
11830;BME280;5972;42.134;24.718;2023-03-18T02:51:44;100180.69;;;6.34;100.00
11830;BME280;5972;42.134;24.718;2023-03-18T02:54:13;100184.59;;;6.28;100.00
11830;BME280;5972;42.134;24.718;2023-03-18T02:56:41;100179.78;;;6.25;100.00
11830;BME280;5972;42.134;24.718;2023-03-18T02:59:09;100183.75;;;6.14;100.00
11830;BME280;5972;42.134;24.718;2023-03-18T03:01:37;100182.97;;;6.13;100.00
11830;BME280;5972;42.134;24.718;2023-03-18T03:04:06;100180.69;;;6.07;100.00
11830;BME280;5972;42.134;24.718;2023-03-18T03:06:33;100182.09;;;6.18;100.00
11830;BME280;5972;42.134;24.718;2023-03-18T03:09:01;100180.22;;;6.18;100.00
11830;BME280;5972;42.134;24.718;2023-03-18T03:11:28;100191.72;;;6.19;100.00
11830;BME280;5972;42.134;24.718;2023-03-18T03:13:55;100176.00;;;6.26;100.00
11830;BME280;5972;42.134;24.718;2023-03-18T03:16:22;100184.38;;;6.38;100.00
11830;BME280;5972;42.134;24.718;2023-03-18T03:18:49;100185.88;;;6.44;100.00
11830;BME280;5972;42.134;24.718;2023-03-18T03:21:18;100186.16;;;6.43;100.00
11830;BME280;5972;42.134;24.718;2023-03-18T03:23:51;100187.28;;;6.28;100.00
11830;BME280;5972;42.134;24.718;2023-03-18T03:26:19;100156.53;;;6.07;100.00
11830;BME280;5972;42.134;24.718;2023-03-18T03:28:46;100179.38;;;6.04;100.00
11830;BME280;5972;42.134;24.718;2023-03-18T03:31:13;100175.59;;;5.92;100.00
11830;BME280;5972;42.134;24.718;2023-03-18T03:33:41;100164.38;;;5.71;100.00
11830;BME280;5972;42.134;24.718;2023-03-18T03:36:10;100192.81;;;5.91;100.00
11830;BME280;5972;42.134;24.718;2023-03-18T03:38:39;100189.63;;;5.89;100.00
11830;BME280;5972;42.134;24.718;2023-03-18T03:41:08;100167.88;;;5.71;100.00
11830;BME280;5972;42.134;24.718;2023-03-18T03:43:36;100187.03;;;5.97;100.00
11830;BME280;5972;42.134;24.718;2023-03-18T03:46:03;100177.97;;;5.93;100.00
11830;BME280;5972;42.134;24.718;2023-03-18T03:48:31;100199.41;;;6.12;100.00
11830;BME280;5972;42.134;24.718;2023-03-18T03:50:58;100199.03;;;6.18;100.00
11830;BME280;5972;42.134;24.718;2023-03-18T03:53:26;100192.53;;;6.19;100.00
11830;BME280;5972;42.134;24.718;2023-03-18T03:55:55;100196.41;;;6.13;100.00
11830;BME280;5972;42.134;24.718;2023-03-18T03:58:21;100196.53;;;6.22;100.00
11830;BME280;5972;42.134;24.718;2023-03-18T04:00:48;100199.91;;;6.28;100.00
11830;BME280;5972;42.134;24.718;2023-03-18T04:03:15;100172.81;;;6.10;100.00
11830;BME280;5972;42.134;24.718;2023-03-18T04:05:42;100193.53;;;6.23;100.00
11830;BME280;5972;42.134;24.718;2023-03-18T04:08:09;100192.13;;;6.26;100.00
11830;BME280;5972;42.134;24.718;2023-03-18T04:10:36;100195.63;;;6.26;100.00
11830;BME280;5972;42.134;24.718;2023-03-18T04:13:04;100198.72;;;6.34;100.00
11830;BME280;5972;42.134;24.718;2023-03-18T04:15:31;100199.50;;;6.20;100.00
11830;BME280;5972;42.134;24.718;2023-03-18T04:17:58;100204.59;;;6.22;100.00
11830;BME280;5972;42.134;24.718;2023-03-18T04:20:31;100203.28;;;6.33;100.00
11830;BME280;5972;42.134;24.718;2023-03-18T04:22:58;100198.44;;;6.35;100.00
11830;BME280;5972;42.134;24.718;2023-03-18T04:25:25;100204.00;;;6.39;100.00
11830;BME280;5972;42.134;24.718;2023-03-18T04:27:52;100204.50;;;6.41;100.00
11830;BME280;5972;42.134;24.718;2023-03-18T04:30:20;100213.84;;;6.43;100.00
11830;BME280;5972;42.134;24.718;2023-03-18T04:32:49;100212.25;;;6.29;100.00
11830;BME280;5972;42.134;24.718;2023-03-18T04:35:18;100209.56;;;6.29;100.00
11830;BME280;5972;42.134;24.718;2023-03-18T04:37:45;100182.09;;;6.18;100.00
11830;BME280;5972;42.134;24.718;2023-03-18T04:40:13;100217.94;;;6.41;100.00
11830;BME280;5972;42.134;24.718;2023-03-18T04:42:40;100197.09;;;6.19;100.00
11830;BME280;5972;42.134;24.718;2023-03-18T04:45:08;100213.44;;;6.36;100.00
11830;BME280;5972;42.134;24.718;2023-03-18T04:47:36;100222.09;;;6.33;100.00
11830;BME280;5972;42.134;24.718;2023-03-18T04:50:03;100217.13;;;6.13;100.00
11830;BME280;5972;42.134;24.718;2023-03-18T04:52:30;100215.34;;;6.22;100.00
11830;BME280;5972;42.134;24.718;2023-03-18T04:54:58;100226.59;;;6.24;100.00
11830;BME280;5972;42.134;24.718;2023-03-18T04:57:24;100214.34;;;6.18;100.00
11830;BME280;5972;42.134;24.718;2023-03-18T04:59:52;100218.91;;;6.17;100.00
11830;BME280;5972;42.134;24.718;2023-03-18T05:02:19;100196.59;;;5.90;100.00
11830;BME280;5972;42.134;24.718;2023-03-18T05:04:47;100216.28;;;5.99;100.00
11830;BME280;5972;42.134;24.718;2023-03-18T05:07:15;100215.44;;;6.17;100.00
11830;BME280;5972;42.134;24.718;2023-03-18T05:09:47;100220.19;;;6.06;100.00
11830;BME280;5972;42.134;24.718;2023-03-18T05:12:15;100205.88;;;6.11;100.00
11830;BME280;5972;42.134;24.718;2023-03-18T05:14:42;100218.69;;;6.14;100.00
11830;BME280;5972;42.134;24.718;2023-03-18T05:17:09;100219.22;;;6.16;100.00
11830;BME280;5972;42.134;24.718;2023-03-18T05:19:40;100223.25;;;6.13;100.00
11830;BME280;5972;42.134;24.718;2023-03-18T05:22:09;100219.69;;;6.04;100.00
11830;BME280;5972;42.134;24.718;2023-03-18T05:24:37;100221.78;;;6.21;100.00
11830;BME280;5972;42.134;24.718;2023-03-18T05:27:04;100188.53;;;6.03;100.00
11830;BME280;5972;42.134;24.718;2023-03-18T05:29:30;100215.91;;;6.05;100.00
11830;BME280;5972;42.134;24.718;2023-03-18T05:31:57;100223.50;;;6.17;100.00
11830;BME280;5972;42.134;24.718;2023-03-18T05:34:24;100221.97;;;6.24;100.00
11830;BME280;5972;42.134;24.718;2023-03-18T05:36:52;100230.66;;;6.21;100.00
11830;BME280;5972;42.134;24.718;2023-03-18T05:39:20;100227.16;;;6.21;100.00
11830;BME280;5972;42.134;24.718;2023-03-18T05:41:47;100231.78;;;6.34;100.00
11830;BME280;5972;42.134;24.718;2023-03-18T05:44:14;100233.38;;;6.35;100.00
11830;BME280;5972;42.134;24.718;2023-03-18T05:46:41;100228.97;;;6.39;100.00
11830;BME280;5972;42.134;24.718;2023-03-18T05:49:08;100223.91;;;6.38;100.00
11830;BME280;5972;42.134;24.718;2023-03-18T05:51:35;100237.94;;;6.35;100.00
11830;BME280;5972;42.134;24.718;2023-03-18T05:54:02;100236.34;;;6.47;100.00
11830;BME280;5972;42.134;24.718;2023-03-18T05:56:31;100235.53;;;6.60;98.68
11830;BME280;5972;42.134;24.718;2023-03-18T05:58:57;100235.75;;;6.50;97.94
11830;BME280;5972;42.134;24.718;2023-03-18T06:01:24;100246.97;;;6.52;98.37
11830;BME280;5972;42.134;24.718;2023-03-18T06:03:51;100239.84;;;6.61;96.11
11830;BME280;5972;42.134;24.718;2023-03-18T06:06:19;100236.53;;;6.64;96.46
11830;BME280;5972;42.134;24.718;2023-03-18T06:08:46;100240.81;;;6.65;95.61
11830;BME280;5972;42.134;24.718;2023-03-18T06:11:14;100226.78;;;6.68;95.63
11830;BME280;5972;42.134;24.718;2023-03-18T06:13:42;100222.28;;;6.78;95.54
11830;BME280;5972;42.134;24.718;2023-03-18T06:16:10;100242.50;;;6.89;94.09
11830;BME280;5972;42.134;24.718;2023-03-18T06:18:37;100240.28;;;7.04;93.29
11830;BME280;5972;42.134;24.718;2023-03-18T06:21:07;100237.22;;;6.84;94.36
11830;BME280;5972;42.134;24.718;2023-03-18T06:23:34;100231.34;;;6.95;96.48
11830;BME280;5972;42.134;24.718;2023-03-18T06:26:02;100229.69;;;7.08;94.83
11830;BME280;5972;42.134;24.718;2023-03-18T06:28:29;100225.78;;;7.14;94.40
11830;BME280;5972;42.134;24.718;2023-03-18T06:30:57;100228.34;;;7.33;94.06
11830;BME280;5972;42.134;24.718;2023-03-18T06:33:24;100228.50;;;7.36;93.16
11830;BME280;5972;42.134;24.718;2023-03-18T06:35:51;100210.19;;;7.25;91.29
11830;BME280;5972;42.134;24.718;2023-03-18T06:38:19;100228.72;;;7.62;90.77
11830;BME280;5972;42.134;24.718;2023-03-18T06:40:46;100223.91;;;7.81;88.97
11830;BME280;5972;42.134;24.718;2023-03-18T06:43:14;100225.25;;;7.92;85.45
11830;BME280;5972;42.134;24.718;2023-03-18T06:45:42;100225.53;;;8.13;82.82
11830;BME280;5972;42.134;24.718;2023-03-18T06:48:13;100217.25;;;8.10;82.03
11830;BME280;5972;42.134;24.718;2023-03-18T06:50:41;100220.78;;;8.41;79.42
11830;BME280;5972;42.134;24.718;2023-03-18T06:53:08;100222.44;;;8.76;75.74
11830;BME280;5972;42.134;24.718;2023-03-18T06:55:35;100220.59;;;9.11;72.30
11830;BME280;5972;42.134;24.718;2023-03-18T06:58:02;100224.09;;;9.38;68.91
11830;BME280;5972;42.134;24.718;2023-03-18T07:00:30;100217.53;;;9.82;64.88
11830;BME280;5972;42.134;24.718;2023-03-18T07:02:57;100209.72;;;10.44;61.59
11830;BME280;5972;42.134;24.718;2023-03-18T07:05:25;100202.53;;;12.05;54.62
11830;BME280;5972;42.134;24.718;2023-03-18T07:07:52;100206.88;;;14.19;47.50
11830;BME280;5972;42.134;24.718;2023-03-18T07:10:21;100203.56;;;15.65;42.50
11830;BME280;5972;42.134;24.718;2023-03-18T07:12:48;100195.28;;;16.72;40.05
11830;BME280;5972;42.134;24.718;2023-03-18T07:15:16;100207.41;;;17.34;37.99
11830;BME280;5972;42.134;24.718;2023-03-18T07:17:45;100205.06;;;17.02;37.81
11830;BME280;5972;42.134;24.718;2023-03-18T07:20:12;100211.72;;;16.52;38.41
11830;BME280;5972;42.134;24.718;2023-03-18T07:22:41;100195.91;;;15.93;38.75
11830;BME280;5972;42.134;24.718;2023-03-18T07:25:08;100192.78;;;15.14;39.61
11830;BME280;5972;42.134;24.718;2023-03-18T07:27:35;100216.13;;;14.45;41.37
11830;BME280;5972;42.134;24.718;2023-03-18T07:30:03;100216.13;;;13.70;43.24
11830;BME280;5972;42.134;24.718;2023-03-18T07:32:30;100202.44;;;12.87;44.66
11830;BME280;5972;42.134;24.718;2023-03-18T07:34:57;100202.78;;;12.61;46.45
11830;BME280;5972;42.134;24.718;2023-03-18T07:37:24;100173.28;;;12.23;47.42
11830;BME280;5972;42.134;24.718;2023-03-18T07:39:53;100199.41;;;12.40;48.00
11830;BME280;5972;42.134;24.718;2023-03-18T07:42:20;100198.38;;;12.32;48.19
11830;BME280;5972;42.134;24.718;2023-03-18T07:44:47;100202.88;;;12.16;48.74
11830;BME280;5972;42.134;24.718;2023-03-18T07:47:14;100201.59;;;11.89;50.15
11830;BME280;5972;42.134;24.718;2023-03-18T07:49:41;100196.75;;;11.62;50.86
11830;BME280;5972;42.134;24.718;2023-03-18T07:52:08;100205.25;;;11.40;52.01
11830;BME280;5972;42.134;24.718;2023-03-18T07:54:36;100207.69;;;11.12;52.96
11830;BME280;5972;42.134;24.718;2023-03-18T07:57:04;100194.34;;;10.86;53.52
11830;BME280;5972;42.134;24.718;2023-03-18T07:59:32;100187.25;;;10.73;55.02
11830;BME280;5972;42.134;24.718;2023-03-18T08:01:59;100205.41;;;10.72;56.11
11830;BME280;5972;42.134;24.718;2023-03-18T08:04:25;100204.94;;;10.70;55.50
11830;BME280;5972;42.134;24.718;2023-03-18T08:06:53;100201.00;;;10.68;55.74
11830;BME280;5972;42.134;24.718;2023-03-18T08:09:19;100211.91;;;10.51;56.94
11830;BME280;5972;42.134;24.718;2023-03-18T08:11:46;100212.38;;;10.53;57.00
11830;BME280;5972;42.134;24.718;2023-03-18T08:14:15;100210.03;;;10.42;56.99
11830;BME280;5972;42.134;24.718;2023-03-18T08:16:42;100216.00;;;10.10;58.30
11830;BME280;5972;42.134;24.718;2023-03-18T08:19:08;100222.75;;;9.95;58.51
11830;BME280;5972;42.134;24.718;2023-03-18T08:21:36;100219.44;;;9.81;59.06
11830;BME280;5972;42.134;24.718;2023-03-18T08:24:04;100219.47;;;9.55;60.87
11830;BME280;5972;42.134;24.718;2023-03-18T08:26:31;100229.78;;;9.53;61.14
11830;BME280;5972;42.134;24.718;2023-03-18T08:28:58;100229.03;;;9.36;62.13
11830;BME280;5972;42.134;24.718;2023-03-18T08:31:26;100227.25;;;9.14;62.91
11830;BME280;5972;42.134;24.718;2023-03-18T08:33:53;100229.78;;;9.10;64.01
11830;BME280;5972;42.134;24.718;2023-03-18T08:36:20;100229.97;;;9.23;63.76
11830;BME280;5972;42.134;24.718;2023-03-18T08:38:47;100233.78;;;9.30;63.16
11830;BME280;5972;42.134;24.718;2023-03-18T08:41:15;100229.00;;;9.44;62.68
11830;BME280;5972;42.134;24.718;2023-03-18T08:43:42;100220.59;;;9.54;62.10
11830;BME280;5972;42.134;24.718;2023-03-18T08:46:09;100218.97;;;9.79;61.19
11830;BME280;5972;42.134;24.718;2023-03-18T08:48:37;100213.53;;;9.88;61.17
11830;BME280;5972;42.134;24.718;2023-03-18T08:51:06;100228.56;;;10.15;59.79
11830;BME280;5972;42.134;24.718;2023-03-18T08:53:33;100228.09;;;10.30;58.42
11830;BME280;5972;42.134;24.718;2023-03-18T08:56:01;100225.81;;;10.40;57.78
11830;BME280;5972;42.134;24.718;2023-03-18T08:58:28;100231.81;;;10.46;56.74
11830;BME280;5972;42.134;24.718;2023-03-18T09:00:54;100235.47;;;10.50;56.07
11830;BME280;5972;42.134;24.718;2023-03-18T09:03:22;100227.34;;;10.50;55.58
11830;BME280;5972;42.134;24.718;2023-03-18T09:05:50;100240.41;;;10.48;54.47
11830;BME280;5972;42.134;24.718;2023-03-18T09:08:18;100240.47;;;10.31;55.18
11830;BME280;5972;42.134;24.718;2023-03-18T09:10:46;100231.47;;;10.18;55.05
11830;BME280;5972;42.134;24.718;2023-03-18T09:13:13;100249.72;;;10.30;54.51
11830;BME280;5972;42.134;24.718;2023-03-18T09:15:40;100246.56;;;10.19;54.78
11830;BME280;5972;42.134;24.718;2023-03-18T09:18:07;100246.25;;;10.12;55.72
11830;BME280;5972;42.134;24.718;2023-03-18T09:20:34;100239.41;;;10.06;55.75
11830;BME280;5972;42.134;24.718;2023-03-18T09:23:03;100234.53;;;9.91;55.10
11830;BME280;5972;42.134;24.718;2023-03-18T09:25:30;100263.91;;;10.01;55.66
11830;BME280;5972;42.134;24.718;2023-03-18T09:27:58;100257.22;;;10.07;55.33
11830;BME280;5972;42.134;24.718;2023-03-18T09:30:26;100256.25;;;10.12;55.36
11830;BME280;5972;42.134;24.718;2023-03-18T09:32:53;100244.97;;;10.18;55.16
11830;BME280;5972;42.134;24.718;2023-03-18T09:35:20;100249.56;;;10.26;54.75
11830;BME280;5972;42.134;24.718;2023-03-18T09:37:47;100244.00;;;10.14;54.11
11830;BME280;5972;42.134;24.718;2023-03-18T09:40:22;100249.16;;;9.64;54.13
11830;BME280;5972;42.134;24.718;2023-03-18T09:42:57;100251.41;;;9.79;54.09
11830;BME280;5972;42.134;24.718;2023-03-18T09:45:30;100250.84;;;10.03;54.04
11830;BME280;5972;42.134;24.718;2023-03-18T09:48:20;100258.97;;;10.03;52.05
11830;BME280;5972;42.134;24.718;2023-03-18T09:50:56;100259.34;;;9.84;52.71
11830;BME280;5972;42.134;24.718;2023-03-18T09:53:35;100272.84;;;9.58;53.47
11830;BME280;5972;42.134;24.718;2023-03-18T09:56:12;100271.59;;;9.47;54.20
11830;BME280;5972;42.134;24.718;2023-03-18T09:58:47;100276.84;;;9.44;52.83
11830;BME280;5972;42.134;24.718;2023-03-18T10:01:17;100281.75;;;9.33;53.37
11830;BME280;5972;42.134;24.718;2023-03-18T10:03:49;100269.84;;;9.17;54.34
11830;BME280;5972;42.134;24.718;2023-03-18T10:06:19;100268.38;;;9.11;54.39
11830;BME280;5972;42.134;24.718;2023-03-18T10:08:53;100281.75;;;9.16;54.80
11830;BME280;5972;42.134;24.718;2023-03-18T10:11:29;100288.84;;;8.95;55.68
11830;BME280;5972;42.134;24.718;2023-03-18T10:14:09;100283.88;;;8.80;56.44
11830;BME280;5972;42.134;24.718;2023-03-18T10:16:49;100290.09;;;8.97;55.12
11830;BME280;5972;42.134;24.718;2023-03-18T10:19:18;100283.28;;;8.91;54.66
11830;BME280;5972;42.134;24.718;2023-03-18T10:21:49;100287.94;;;9.08;54.63
11830;BME280;5972;42.134;24.718;2023-03-18T10:24:26;100281.59;;;9.38;54.84
11830;BME280;5972;42.134;24.718;2023-03-18T10:27:06;100291.00;;;9.41;55.29
11830;BME280;5972;42.134;24.718;2023-03-18T10:29:39;100291.78;;;9.41;55.68
11830;BME280;5972;42.134;24.718;2023-03-18T10:32:18;100298.72;;;9.25;57.09
11830;BME280;5972;42.134;24.718;2023-03-18T10:34:56;100289.88;;;9.25;57.83
11830;BME280;5972;42.134;24.718;2023-03-18T10:37:37;100299.72;;;9.38;56.88
11830;BME280;5972;42.134;24.718;2023-03-18T10:40:12;100292.09;;;9.40;57.67
11830;BME280;5972;42.134;24.718;2023-03-18T10:42:41;100298.59;;;9.65;56.64
11830;BME280;5972;42.134;24.718;2023-03-18T10:45:21;100282.41;;;9.56;55.29
11830;BME280;5972;42.134;24.718;2023-03-18T10:47:55;100288.28;;;9.67;52.66
11830;BME280;5972;42.134;24.718;2023-03-18T10:50:30;100289.19;;;10.14;53.42
11830;BME280;5972;42.134;24.718;2023-03-18T10:53:01;100297.50;;;9.91;51.28
11830;BME280;5972;42.134;24.718;2023-03-18T10:55:34;100286.06;;;9.43;50.90
11830;BME280;5972;42.134;24.718;2023-03-18T10:58:13;100290.34;;;9.78;49.69
11830;BME280;5972;42.134;24.718;2023-03-18T11:00:40;100279.31;;;10.09;48.85
11830;BME280;5972;42.134;24.718;2023-03-18T11:03:17;100272.59;;;10.32;47.51
11830;BME280;5972;42.134;24.718;2023-03-18T11:05:46;100273.13;;;10.17;47.02
11830;BME280;5972;42.134;24.718;2023-03-18T11:08:30;100281.03;;;10.39;46.78
11830;BME280;5972;42.134;24.718;2023-03-18T11:11:24;100278.25;;;10.57;46.95
11830;BME280;5972;42.134;24.718;2023-03-18T11:13:55;100278.63;;;10.38;46.76
11830;BME280;5972;42.134;24.718;2023-03-18T11:16:29;100274.50;;;10.40;47.27
11830;BME280;5972;42.134;24.718;2023-03-18T11:18:58;100279.91;;;10.40;48.20
11830;BME280;5972;42.134;24.718;2023-03-18T11:21:31;100267.28;;;10.53;47.67
11830;BME280;5972;42.134;24.718;2023-03-18T11:23:59;100270.81;;;10.45;47.57
11830;BME280;5972;42.134;24.718;2023-03-18T11:26:48;100272.53;;;10.58;47.90
11830;BME280;5972;42.134;24.718;2023-03-18T11:29:22;100271.56;;;10.54;48.67
11830;BME280;5972;42.134;24.718;2023-03-18T11:31:53;100264.03;;;10.30;49.48
11830;BME280;5972;42.134;24.718;2023-03-18T11:34:23;100268.50;;;10.09;51.10
11830;BME280;5972;42.134;24.718;2023-03-18T11:36:55;100257.41;;;9.93;51.73
11830;BME280;5972;42.134;24.718;2023-03-18T11:39:27;100267.72;;;10.17;51.55
11830;BME280;5972;42.134;24.718;2023-03-18T11:41:56;100261.03;;;9.97;51.50
11830;BME280;5972;42.134;24.718;2023-03-18T11:44:28;100254.22;;;10.00;51.99
11830;BME280;5972;42.134;24.718;2023-03-18T11:47:00;100263.38;;;10.33;51.62
11830;BME280;5972;42.134;24.718;2023-03-18T11:49:29;100252.19;;;10.52;51.08
11830;BME280;5972;42.134;24.718;2023-03-18T11:52:05;100255.16;;;10.13;51.14
11830;BME280;5972;42.134;24.718;2023-03-18T11:54:57;100259.44;;;10.05;52.07
11830;BME280;5972;42.134;24.718;2023-03-18T11:57:32;100239.91;;;9.99;52.21
11830;BME280;5972;42.134;24.718;2023-03-18T12:00:21;100255.94;;;10.60;51.92
11830;BME280;5972;42.134;24.718;2023-03-18T12:03:12;100256.09;;;10.63;50.77
11830;BME280;5972;42.134;24.718;2023-03-18T12:06:03;100255.81;;;10.56;50.60
11830;BME280;5972;42.134;24.718;2023-03-18T12:08:52;100245.72;;;10.36;50.60
11830;BME280;5972;42.134;24.718;2023-03-18T12:11:30;100215.34;;;10.30;50.70
11830;BME280;5972;42.134;24.718;2023-03-18T12:14:04;100239.75;;;10.51;49.96
11830;BME280;5972;42.134;24.718;2023-03-18T12:16:47;100248.72;;;10.72;49.55
11830;BME280;5972;42.134;24.718;2023-03-18T12:19:37;100227.16;;;10.55;49.52
11830;BME280;5972;42.134;24.718;2023-03-18T12:25:20;100235.84;;;11.40;46.60
11830;BME280;5972;42.134;24.718;2023-03-18T12:27:54;100232.25;;;11.69;45.92
11830;BME280;5972;42.134;24.718;2023-03-18T12:30:38;100235.97;;;11.97;45.34
11830;BME280;5972;42.134;24.718;2023-03-18T12:33:21;100230.97;;;11.87;44.89
11830;BME280;5972;42.134;24.718;2023-03-18T12:35:55;100235.84;;;11.19;45.29
11830;BME280;5972;42.134;24.718;2023-03-18T12:38:41;100235.91;;;11.73;45.65
11830;BME280;5972;42.134;24.718;2023-03-18T12:41:14;100231.38;;;11.77;44.44
11830;BME280;5972;42.134;24.718;2023-03-18T12:44:00;100232.22;;;11.36;45.09
11830;BME280;5972;42.134;24.718;2023-03-18T12:46:32;100222.22;;;10.87;46.25
11830;BME280;5972;42.134;24.718;2023-03-18T12:49:10;100228.38;;;11.37;45.59
11830;BME280;5972;42.134;24.718;2023-03-18T12:51:43;100221.25;;;11.65;44.93
11830;BME280;5972;42.134;24.718;2023-03-18T12:54:17;100206.44;;;11.84;45.32
11830;BME280;5972;42.134;24.718;2023-03-18T12:56:48;100203.25;;;12.15;44.38
11830;BME280;5972;42.134;24.718;2023-03-18T12:59:22;100201.44;;;12.31;43.91
11830;BME280;5972;42.134;24.718;2023-03-18T13:01:59;100192.94;;;12.44;42.99
11830;BME280;5972;42.134;24.718;2023-03-18T13:04:32;100185.72;;;12.48;43.18
11830;BME280;5972;42.134;24.718;2023-03-18T13:07:04;100202.00;;;12.48;42.96
11830;BME280;5972;42.134;24.718;2023-03-18T13:09:43;100190.72;;;12.46;43.26